Time;durP1;ratioP1;P1;durP2;ratioP2;P2;SDS_P1;SDS_P2;PMS_P1;PMS_P2;Temp;Humidity;BMP_temperature;BMP_pressure;BME280_temperature;BME280_humidity;BME280_pressure;Samples;Min_cycle;Max_cycle;Signal;HPM_P1;HPM_P2
2021/03/02 00:01:43;;;;;;;15.10;9.70;;;7.60;99.90;;;;;;5009934;28;20455;-66
2021/03/02 00:04:09;;;;;;;17.30;10.80;;;7.60;99.90;;;;;;5010590;28;20172;-67
2021/03/02 00:06:34;;;;;;;15.80;10.50;;;7.50;99.90;;;;;;5010949;28;20427;-67
2021/03/02 00:09:00;;;;;;;19.90;12.27;;;7.60;99.90;;;;;;5010580;28;20172;-66
2021/03/02 00:11:27;;;;;;;19.00;11.90;;;7.50;99.90;;;;;;5010535;28;20214;-67
2021/03/02 00:13:52;;;;;;;16.33;10.47;;;7.60;99.90;;;;;;5010500;28;20179;-67
2021/03/02 00:16:25;;;;;;;19.87;10.73;;;7.50;99.90;;;;;;5010525;28;20412;-67
2021/03/02 00:18:56;;;;;;;18.70;11.03;;;7.50;99.90;;;;;;5010799;28;20280;-68
2021/03/02 00:21:26;;;;;;;16.70;11.03;;;7.40;99.90;;;;;;5010356;28;20453;-67
2021/03/02 00:23:56;;;;;;;18.67;9.70;;;7.30;99.90;;;;;;5010485;28;20446;-68
2021/03/02 00:26:24;;;;;;;19.20;11.33;;;7.30;99.90;;;;;;5010424;28;20549;-67
2021/03/02 00:28:50;;;;;;;15.53;9.90;;;7.20;99.90;;;;;;5010445;28;20763;-67
2021/03/02 00:31:17;;;;;;;15.53;10.10;;;7.30;99.90;;;;;;5010287;28;20445;-68
2021/03/02 00:33:45;;;;;;;16.53;10.67;;;7.20;99.90;;;;;;5010373;28;20506;-67
2021/03/02 00:36:11;;;;;;;15.60;10.13;;;7.30;99.90;;;;;;5010143;28;20430;-66
2021/03/02 00:38:37;;;;;;;13.17;9.17;;;7.20;99.90;;;;;;5010337;28;20423;-66
2021/03/02 00:41:02;;;;;;;13.83;9.63;;;7.10;99.90;;;;;;5010126;28;20219;-66
2021/03/02 00:43:28;;;;;;;13.50;8.90;;;7.10;99.90;;;;;;5010349;28;20180;-67
2021/03/02 00:45:54;;;;;;;14.37;9.43;;;7.20;99.90;;;;;;5010323;28;20173;-67
2021/03/02 00:48:19;;;;;;;13.90;8.80;;;7.10;99.90;;;;;;5010290;28;20164;-67
2021/03/02 00:50:45;;;;;;;17.33;9.60;;;7.10;99.90;;;;;;5010069;28;20536;-67
2021/03/02 00:53:10;;;;;;;17.40;9.97;;;7.00;99.90;;;;;;5011062;28;20224;-67
2021/03/02 00:55:36;;;;;;;14.77;9.43;;;7.00;99.90;;;;;;5009213;28;20180;-68
2021/03/02 00:58:02;;;;;;;15.57;9.50;;;6.90;99.90;;;;;;5010294;28;20645;-67
2021/03/02 01:00:28;;;;;;;13.47;8.90;;;6.90;99.90;;;;;;5010079;28;20185;-67
2021/03/02 01:02:53;;;;;;;16.93;10.17;;;6.80;99.90;;;;;;5010127;28;20196;-67
2021/03/02 01:05:19;;;;;;;16.13;9.33;;;6.80;99.90;;;;;;5010148;28;20180;-66
2021/03/02 01:07:45;;;;;;;15.60;10.33;;;6.80;99.90;;;;;;5010004;28;20173;-67
2021/03/02 01:10:11;;;;;;;16.27;9.60;;;6.80;99.90;;;;;;5010127;28;20554;-66
2021/03/02 01:12:37;;;;;;;14.90;9.07;;;6.80;99.90;;;;;;5012828;28;20200;-66
2021/03/02 01:15:05;;;;;;;15.33;9.77;;;6.80;99.90;;;;;;5013512;28;20423;-68
2021/03/02 01:17:31;;;;;;;14.33;8.80;;;6.70;99.90;;;;;;5013533;28;20637;-66
2021/03/02 01:19:57;;;;;;;14.33;9.27;;;6.60;99.90;;;;;;5013648;28;20502;-67
2021/03/02 01:22:23;;;;;;;16.10;9.53;;;6.60;99.90;;;;;;5013473;28;20234;-67
2021/03/02 01:24:48;;;;;;;14.30;9.17;;;6.60;99.90;;;;;;5013628;28;20184;-66
2021/03/02 01:27:14;;;;;;;21.33;9.50;;;6.50;99.90;;;;;;5013823;28;20263;-67
2021/03/02 01:29:39;;;;;;;13.60;8.47;;;6.50;99.90;;;;;;5013449;28;20555;-67
2021/03/02 01:32:06;;;;;;;14.07;8.80;;;6.50;99.90;;;;;;5013339;28;20661;-66
2021/03/02 01:34:32;;;;;;;14.00;8.77;;;6.30;99.90;;;;;;5013314;28;20215;-67
2021/03/02 01:36:58;;;;;;;14.73;8.73;;;6.20;99.90;;;;;;5013087;28;20416;-68
2021/03/02 01:39:24;;;;;;;13.27;8.97;;;6.10;99.90;;;;;;5013363;28;20459;-67
2021/03/02 01:41:54;;;;;;;13.73;9.00;;;6.00;99.90;;;;;;5012879;28;20450;-67
2021/03/02 01:44:20;;;;;;;14.33;9.10;;;6.00;99.90;;;;;;5012971;28;20208;-67
2021/03/02 01:46:48;;;;;;;15.57;9.33;;;6.00;99.90;;;;;;5012944;28;20419;-67
2021/03/02 01:49:14;;;;;;;14.77;8.83;;;6.10;99.90;;;;;;4995274;28;20423;-67
2021/03/02 01:51:39;;;;;;;15.97;9.40;;;6.10;99.90;;;;;;5013068;28;20469;-66
2021/03/02 01:54:05;;;;;;;13.77;9.13;;;6.10;99.90;;;;;;5012586;28;20212;-68
2021/03/02 01:56:31;;;;;;;14.70;9.30;;;6.10;99.90;;;;;;5012907;28;20180;-67
2021/03/02 01:58:57;;;;;;;13.30;8.53;;;6.10;99.90;;;;;;4995476;28;20180;-67
2021/03/02 02:01:23;;;;;;;13.67;9.00;;;6.10;99.90;;;;;;5012491;28;20655;-68
2021/03/02 02:03:55;;;;;;;14.60;9.20;;;6.10;99.90;;;;;;5012789;28;20534;-66
2021/03/02 02:06:35;;;;;;;15.57;9.03;;;5.90;99.90;;;;;;5012724;28;20631;-67
2021/03/02 02:09:25;;;;;;;14.90;8.93;;;5.90;99.90;;;;;;5012660;28;20533;-67
2021/03/02 02:11:59;;;;;;;15.77;10.03;;;5.80;99.90;;;;;;5012648;28;20466;-68
2021/03/02 02:15:03;;;;;;;18.53;10.37;;;5.80;99.90;;;;;;5012186;28;20426;-66
2021/03/02 02:17:44;;;;;;;16.53;10.40;;;5.70;99.90;;;;;;4991412;28;20665;-67
2021/03/02 02:20:35;;;;;;;16.77;10.07;;;5.60;99.90;;;;;;5012526;28;20503;-66
2021/03/02 02:23:20;;;;;;;18.80;10.77;;;5.60;99.90;;;;;;4965309;28;20431;-66
2021/03/02 02:26:04;;;;;;;20.10;11.13;;;5.50;99.90;;;;;;5012275;28;20469;-66
2021/03/02 02:28:32;;;;;;;15.60;9.93;;;5.40;99.90;;;;;;5012108;28;20408;-66
2021/03/02 02:31:00;;;;;;;20.00;11.33;;;5.40;99.90;;;;;;5012062;28;20469;-67
2021/03/02 02:33:32;;;;;;;18.93;10.57;;;5.30;99.90;;;;;;5012084;28;20439;-68
2021/03/02 02:36:00;;;;;;;16.93;10.73;;;5.30;99.90;;;;;;5012155;28;20469;-66
2021/03/02 02:38:28;;;;;;;19.43;10.17;;;5.30;99.90;;;;;;5012067;28;20414;-67
2021/03/02 02:40:54;;;;;;;19.00;10.20;;;5.20;99.90;;;;;;5011800;28;20451;-68
2021/03/02 02:43:21;;;;;;;19.00;10.97;;;5.20;99.90;;;;;;5011953;28;20407;-67
2021/03/02 02:45:48;;;;;;;17.13;10.10;;;5.20;99.90;;;;;;5011933;28;20519;-67
2021/03/02 02:48:16;;;;;;;16.97;10.43;;;5.20;99.90;;;;;;5012180;28;20461;-67
2021/03/02 02:50:44;;;;;;;16.07;9.87;;;5.10;99.90;;;;;;5011732;28;20415;-67
2021/03/02 02:53:10;;;;;;;19.33;10.07;;;4.90;99.90;;;;;;5012758;28;20527;-67
2021/03/02 02:55:42;;;;;;;16.37;9.43;;;4.70;99.90;;;;;;5011573;28;20502;-68
2021/03/02 02:58:10;;;;;;;19.17;9.90;;;4.60;99.90;;;;;;5011706;28;20498;-66
2021/03/02 03:00:38;;;;;;;15.90;9.73;;;4.50;99.90;;;;;;5011775;28;20420;-67
2021/03/02 03:03:07;;;;;;;16.53;9.53;;;4.50;99.90;;;;;;5011580;28;20419;-68
2021/03/02 03:05:34;;;;;;;13.03;8.23;;;4.70;99.90;;;;;;5011429;28;20407;-67
2021/03/02 03:08:14;;;;;;;15.83;9.23;;;4.60;99.90;;;;;;5011471;28;20427;-68
2021/03/02 03:10:44;;;;;;;11.73;7.83;;;4.40;99.90;;;;;;5010674;28;20430;-67
2021/03/02 03:13:12;;;;;;;13.53;8.17;;;4.40;99.90;;;;;;5011401;28;20858;-67
2021/03/02 03:15:39;;;;;;;12.00;7.93;;;4.20;99.90;;;;;;5011342;28;20423;-67
2021/03/02 03:18:08;;;;;;;13.53;8.30;;;4.00;99.90;;;;;;5010178;28;20502;-66
2021/03/02 03:20:35;;;;;;;14.73;8.67;;;3.90;99.90;;;;;;5011495;28;20423;-68
2021/03/02 03:23:01;;;;;;;11.57;7.30;;;3.80;99.90;;;;;;4993385;28;20424;-67
2021/03/02 03:25:27;;;;;;;19.63;8.17;;;3.80;99.90;;;;;;5011075;28;20419;-66
2021/03/02 03:27:56;;;;;;;15.10;8.43;;;3.70;99.90;;;;;;4993178;28;20781;-66
2021/03/02 03:30:23;;;;;;;12.80;7.40;;;3.80;99.90;;;;;;5011026;28;20256;-67
2021/03/02 03:33:02;;;;;;;13.00;7.73;;;4.00;99.90;;;;;;4993847;28;20447;-67
2021/03/02 03:35:28;;;;;;;11.50;7.73;;;3.80;99.90;;;;;;5010781;28;20419;-67
2021/03/02 03:37:54;;;;;;;13.80;7.80;;;3.60;99.90;;;;;;5011042;28;20427;-66
2021/03/02 03:40:21;;;;;;;15.17;7.43;;;3.40;99.90;;;;;;5011090;28;20172;-66
2021/03/02 03:42:47;;;;;;;12.37;7.27;;;3.30;99.90;;;;;;5011052;28;20836;-67
2021/03/02 03:45:13;;;;;;;10.60;7.20;;;3.20;99.90;;;;;;5010963;28;20554;-66
2021/03/02 03:47:39;;;;;;;10.57;7.47;;;3.00;99.90;;;;;;5010860;28;20203;-67
2021/03/02 03:50:06;;;;;;;11.90;7.30;;;3.00;99.90;;;;;;5010746;28;20426;-67
2021/03/02 03:52:35;;;;;;;12.07;6.87;;;3.00;99.90;;;;;;5011726;28;20419;-67
2021/03/02 03:55:01;;;;;;;10.03;6.67;;;3.00;99.90;;;;;;5010686;28;20502;-66
2021/03/02 03:57:28;;;;;;;11.10;7.13;;;2.90;99.90;;;;;;5011106;28;20423;-66
2021/03/02 03:59:54;;;;;;;13.27;7.67;;;2.90;99.90;;;;;;5010514;28;20427;-66
2021/03/02 04:02:21;;;;;;;12.60;7.47;;;2.90;99.90;;;;;;5011194;28;20455;-68
2021/03/02 04:04:47;;;;;;;12.63;7.03;;;2.90;99.90;;;;;;5010606;28;20510;-66
2021/03/02 04:07:14;;;;;;;11.83;7.60;;;2.90;99.90;;;;;;5010846;28;20775;-66
2021/03/02 04:09:41;;;;;;;11.43;7.27;;;3.00;99.90;;;;;;5010415;28;20510;-66
2021/03/02 04:12:09;;;;;;;11.53;7.53;;;3.10;99.90;;;;;;5010532;28;20481;-66
2021/03/02 04:14:35;;;;;;;12.97;7.27;;;3.20;99.90;;;;;;5010483;28;20411;-66
2021/03/02 04:17:02;;;;;;;9.30;6.80;;;3.30;99.90;;;;;;5010259;28;20461;-65
2021/03/02 04:19:28;;;;;;;11.83;7.33;;;3.40;99.90;;;;;;5010356;28;20438;-66
2021/03/02 04:21:54;;;;;;;13.60;6.93;;;3.30;99.90;;;;;;5010487;28;20455;-67
2021/03/02 04:24:19;;;;;;;13.50;7.00;;;3.10;99.90;;;;;;5010581;28;20654;-66
2021/03/02 04:26:45;;;;;;;12.03;7.63;;;3.20;99.90;;;;;;5010704;28;20255;-67
2021/03/02 04:29:10;;;;;;;11.57;7.07;;;3.20;99.90;;;;;;5010302;28;20214;-66
2021/03/02 04:31:36;;;;;;;11.70;7.23;;;3.20;99.90;;;;;;5010271;28;20315;-66
2021/03/02 04:34:02;;;;;;;13.03;7.60;;;3.30;99.90;;;;;;5010297;28;20627;-67
2021/03/02 04:36:27;;;;;;;14.03;7.17;;;3.40;99.90;;;;;;5010525;28;20259;-67
2021/03/02 04:38:53;;;;;;;11.73;6.77;;;3.40;99.90;;;;;;5010180;28;20626;-68
2021/03/02 04:41:18;;;;;;;10.80;7.10;;;3.30;99.90;;;;;;5010187;28;20214;-66
2021/03/02 04:43:44;;;;;;;11.40;7.43;;;3.10;99.90;;;;;;5010378;28;20237;-67
2021/03/02 04:46:09;;;;;;;11.93;7.67;;;3.00;99.90;;;;;;5010610;28;20169;-67
2021/03/02 04:48:35;;;;;;;11.20;7.00;;;3.00;99.90;;;;;;5014139;28;20619;-66
2021/03/02 04:51:01;;;;;;;10.57;7.17;;;3.00;99.90;;;;;;5014078;28;20179;-66
2021/03/02 04:53:28;;;;;;;10.37;7.40;;;2.90;99.90;;;;;;5014871;28;20258;-67
2021/03/02 04:55:54;;;;;;;13.40;7.93;;;2.80;99.90;;;;;;5013988;28;20211;-66
2021/03/02 04:58:19;;;;;;;12.50;7.60;;;2.70;99.90;;;;;;5014103;28;20441;-67
2021/03/02 05:00:45;;;;;;;12.97;7.67;;;2.80;99.90;;;;;;5013908;28;20263;-67
2021/03/02 05:03:10;;;;;;;10.00;7.27;;;2.80;99.90;;;;;;5013841;28;20184;-67
2021/03/02 05:05:36;;;;;;;13.93;7.63;;;2.80;99.90;;;;;;5013662;28;20176;-67
2021/03/02 05:08:02;;;;;;;10.00;6.53;;;2.80;99.90;;;;;;4996024;28;20189;-67
2021/03/02 05:10:27;;;;;;;11.27;7.33;;;2.90;99.90;;;;;;5013673;28;20204;-68
2021/03/02 05:12:53;;;;;;;11.60;6.83;;;2.90;99.90;;;;;;5014134;28;20505;-66
2021/03/02 05:15:18;;;;;;;12.67;6.90;;;3.00;99.90;;;;;;5013711;28;20266;-68
2021/03/02 05:17:50;;;;;;;11.00;6.73;;;3.00;99.90;;;;;;5013592;28;20548;-67
2021/03/02 05:20:16;;;;;;;12.20;7.43;;;2.90;99.90;;;;;;5013715;28;20187;-67
2021/03/02 05:22:42;;;;;;;12.17;7.43;;;2.60;99.90;;;;;;5013317;28;20455;-67
2021/03/02 05:25:08;;;;;;;12.57;7.63;;;2.60;99.90;;;;;;5013263;28;20178;-68
2021/03/02 05:27:33;;;;;;;11.53;6.67;;;2.50;99.90;;;;;;5013405;28;20389;-68
2021/03/02 05:29:59;;;;;;;13.03;7.37;;;2.40;99.90;;;;;;5013086;28;20638;-68
2021/03/02 05:32:24;;;;;;;12.87;7.00;;;2.40;99.90;;;;;;5013538;28;20199;-69
2021/03/02 05:34:50;;;;;;;10.90;6.63;;;2.40;99.90;;;;;;5013517;28;20183;-69
2021/03/02 05:37:16;;;;;;;15.73;7.33;;;2.30;99.90;;;;;;5013228;28;20191;-69
2021/03/02 05:39:41;;;;;;;14.53;7.97;;;2.30;99.90;;;;;;5013207;28;20180;-68
2021/03/02 05:42:07;;;;;;;12.17;7.43;;;2.40;99.90;;;;;;5013186;28;22046;-68
2021/03/02 05:44:33;;;;;;;11.97;7.67;;;2.60;99.90;;;;;;5012711;28;20246;-67
2021/03/02 05:47:00;;;;;;;17.20;8.33;;;2.70;99.90;;;;;;5012957;28;20456;-68
2021/03/02 05:49:27;;;;;;;15.23;7.53;;;2.80;99.90;;;;;;5013178;28;20176;-68
2021/03/02 05:51:53;;;;;;;12.47;7.30;;;2.90;99.90;;;;;;5013292;28;20422;-69
2021/03/02 05:54:20;;;;;;;15.43;7.63;;;2.90;99.90;;;;;;5013582;28;20443;-67
2021/03/02 05:56:45;;;;;;;14.97;9.43;;;2.80;99.90;;;;;;5013179;28;20176;-68
2021/03/02 05:59:11;;;;;;;12.67;8.13;;;2.70;99.90;;;;;;5012473;28;20417;-67
2021/03/02 06:01:37;;;;;;;12.40;8.17;;;2.80;99.90;;;;;;5012951;28;20671;-68
2021/03/02 06:04:04;;;;;;;15.90;8.73;;;2.90;99.90;;;;;;5012706;28;20176;-68
2021/03/02 06:06:30;;;;;;;17.70;8.30;;;2.90;99.90;;;;;;5012948;28;20541;-67
2021/03/02 06:08:55;;;;;;;14.57;8.70;;;3.00;99.90;;;;;;5012811;28;20415;-68
2021/03/02 06:11:34;;;;;;;11.60;8.17;;;3.10;99.90;;;;;;5013292;28;20172;-67
2021/03/02 06:14:38;;;;;;;15.17;8.70;;;3.10;99.90;;;;;;5012866;28;20168;-67
2021/03/02 06:17:05;;;;;;;13.90;7.77;;;3.00;99.90;;;;;;4912572;29;20520;-67
2021/03/02 06:19:41;;;;;;;15.33;8.77;;;2.90;99.90;;;;;;4908119;29;20449;-68
2021/03/02 06:22:37;;;;;;;15.27;8.77;;;2.80;99.90;;;;;;4913403;29;21079;-67
2021/03/02 06:25:24;;;;;;;16.10;8.73;;;2.80;99.90;;;;;;4891935;29;20471;-68
2021/03/02 06:27:49;;;;;;;18.93;9.37;;;2.70;99.90;;;;;;4897918;29;20431;-68
2021/03/02 06:30:16;;;;;;;19.07;9.13;;;2.80;99.90;;;;;;4913190;29;20599;-66
2021/03/02 06:32:53;;;;;;;13.57;8.70;;;2.80;99.90;;;;;;4913657;29;20647;-68
2021/03/02 06:35:38;;;;;;;17.27;10.37;;;2.80;99.90;;;;;;4913168;29;20471;-67
2021/03/02 06:38:05;;;;;;;15.13;9.47;;;2.90;99.90;;;;;;4913631;29;20428;-66
2021/03/02 06:40:40;;;;;;;16.60;8.93;;;2.90;99.90;;;;;;4913602;29;21268;-66
2021/03/02 06:43:06;;;;;;;14.73;8.83;;;3.00;99.90;;;;;;4912980;29;20910;-69
2021/03/02 06:45:32;;;;;;;16.20;9.70;;;3.10;99.90;;;;;;4913667;29;20431;-67
2021/03/02 06:48:05;;;;;;;13.83;8.57;;;3.20;99.90;;;;;;4969393;28;20598;-67
2021/03/02 06:50:38;;;;;;;16.90;9.17;;;3.30;99.90;;;;;;5011513;28;20176;-66
2021/03/02 06:53:11;;;;;;;14.00;8.30;;;3.20;99.90;;;;;;5011353;28;20448;-66
2021/03/02 06:55:38;;;;;;;15.10;8.67;;;3.30;99.90;;;;;;5011997;28;20416;-67
2021/03/02 06:58:33;;;;;;;13.57;8.57;;;3.50;99.90;;;;;;5011804;28;20458;-66
2021/03/02 07:00:58;;;;;;;19.20;9.97;;;3.50;99.90;;;;;;4990600;28;20542;-68
2021/03/02 07:03:32;;;;;;;16.37;9.03;;;3.60;99.90;;;;;;5011492;28;20535;-68
2021/03/02 07:06:04;;;;;;;14.23;8.73;;;3.70;99.90;;;;;;5011488;28;20183;-67
2021/03/02 07:08:31;;;;;;;16.67;10.00;;;3.70;99.90;;;;;;5011048;28;20435;-70
2021/03/02 07:10:58;;;;;;;17.23;10.20;;;3.80;99.90;;;;;;5011269;28;20419;-68
2021/03/02 07:13:25;;;;;;;20.77;9.47;;;3.90;99.90;;;;;;5011687;28;20426;-68
2021/03/02 07:15:51;;;;;;;18.20;9.27;;;4.00;99.90;;;;;;5011667;28;20415;-67
2021/03/02 07:18:21;;;;;;;16.73;9.53;;;4.20;99.90;;;;;;5011271;28;20514;-67
2021/03/02 07:20:50;;;;;;;13.67;8.50;;;4.30;99.90;;;;;;5011587;28;20890;-67
2021/03/02 07:23:18;;;;;;;16.70;9.90;;;4.40;99.90;;;;;;5011560;28;20416;-66
2021/03/02 07:25:45;;;;;;;17.93;9.73;;;4.50;99.90;;;;;;5011705;28;20968;-68
2021/03/02 07:28:13;;;;;;;14.97;9.63;;;4.60;99.90;;;;;;5011412;28;20423;-67
2021/03/02 07:30:40;;;;;;;16.73;11.20;;;4.80;99.90;;;;;;5011433;28;20511;-67
2021/03/02 07:33:06;;;;;;;18.57;10.83;;;4.90;99.90;;;;;;5011442;28;20906;-67
2021/03/02 07:35:33;;;;;;;21.77;11.13;;;5.00;99.90;;;;;;5011279;28;20411;-66
2021/03/02 07:38:19;;;;;;;18.37;10.77;;;5.10;99.90;;;;;;5011643;28;20415;-67
2021/03/02 07:40:52;;;;;;;17.33;11.30;;;5.20;99.90;;;;;;5011438;28;20824;-67
2021/03/02 07:43:52;;;;;;;20.80;11.60;;;5.30;99.90;;;;;;4993832;28;20450;-68
2021/03/02 07:46:29;;;;;;;20.40;11.83;;;5.60;99.90;;;;;;5011072;28;20422;-66
2021/03/02 07:48:55;;;;;;;19.70;11.30;;;5.70;99.90;;;;;;5010423;28;20817;-69
2021/03/02 07:51:22;;;;;;;19.57;12.27;;;5.90;99.90;;;;;;5010670;28;20419;-67
2021/03/02 07:53:52;;;;;;;19.53;11.90;;;6.00;99.90;;;;;;5010960;28;20216;-67
2021/03/02 07:56:23;;;;;;;18.50;10.83;;;6.20;99.90;;;;;;5010559;28;20506;-67
2021/03/02 07:59:10;;;;;;;20.73;11.03;;;6.40;99.90;;;;;;5011122;28;20450;-67
2021/03/02 08:01:36;;;;;;;20.07;11.90;;;6.40;99.90;;;;;;5009723;28;20455;-67
2021/03/02 08:04:17;;;;;;;18.10;10.20;;;6.60;99.90;;;;;;5010852;28;20426;-66
2021/03/02 08:06:44;;;;;;;16.70;10.23;;;6.70;99.90;;;;;;5010966;28;20505;-67
2021/03/02 08:09:21;;;;;;;16.20;10.37;;;6.80;99.90;;;;;;5011078;28;20411;-68
2021/03/02 08:11:48;;;;;;;15.90;10.30;;;6.80;99.90;;;;;;5012146;28;20869;-67
2021/03/02 08:14:16;;;;;;;21.17;11.17;;;6.80;99.90;;;;;;5011760;28;20415;-66
2021/03/02 08:17:02;;;;;;;13.47;10.37;;;6.90;99.90;;;;;;5010700;28;20412;-70
2021/03/02 08:19:31;;;;;;;16.63;10.50;;;7.10;99.90;;;;;;5010896;28;20778;-67
2021/03/02 08:21:56;;;;;;;16.47;11.67;;;7.10;99.90;;;;;;5009963;28;20454;-69
2021/03/02 08:25:03;;;;;;;19.17;11.57;;;7.10;99.90;;;;;;5010369;28;20925;-68
2021/03/02 08:27:40;;;;;;;18.07;11.47;;;7.30;99.90;;;;;;5010452;28;20183;-68
2021/03/02 08:30:08;;;;;;;20.67;11.63;;;7.30;99.90;;;;;;5010294;28;20403;-69
2021/03/02 08:32:35;;;;;;;17.87;10.83;;;7.30;99.90;;;;;;5010806;28;20424;-67
2021/03/02 08:35:12;;;;;;;19.07;10.27;;;7.40;99.90;;;;;;5010301;28;20427;-68
2021/03/02 08:37:44;;;;;;;19.23;11.30;;;7.40;99.90;;;;;;5010551;28;20411;-69
2021/03/02 08:40:13;;;;;;;17.73;11.13;;;7.50;99.90;;;;;;5010248;28;20411;-68
2021/03/02 08:43:02;;;;;;;20.93;11.37;;;7.50;99.90;;;;;;5010339;28;20451;-68
2021/03/02 08:45:30;;;;;;;18.73;10.87;;;7.60;99.90;;;;;;5010422;28;20466;-67
2021/03/02 08:48:15;;;;;;;22.23;11.93;;;7.60;99.90;;;;;;5009942;28;20419;-70
2021/03/02 08:50:41;;;;;;;16.17;10.93;;;7.60;99.90;;;;;;5010125;28;20407;-69
2021/03/02 08:53:49;;;;;;;17.23;11.53;;;7.70;99.90;;;;;;5011003;28;20518;-67
2021/03/02 08:56:26;;;;;;;20.07;11.07;;;7.80;99.90;;;;;;4930595;29;20446;-68
2021/03/02 08:59:05;;;;;;;16.13;10.47;;;7.80;99.90;;;;;;5003827;28;20423;-68
2021/03/02 09:01:35;;;;;;;18.60;11.47;;;8.00;99.90;;;;;;5010355;28;20461;-67
2021/03/02 09:04:11;;;;;;;16.77;10.93;;;8.00;99.90;;;;;;5010340;28;20466;-69
2021/03/02 09:06:39;;;;;;;15.63;11.63;;;8.10;99.90;;;;;;5010492;28;20448;-68
2021/03/02 09:09:04;;;;;;;19.47;11.90;;;8.20;99.90;;;;;;5010345;28;20840;-68
2021/03/02 09:11:39;;;;;;;17.63;10.87;;;8.20;99.90;;;;;;5010495;28;20511;-68
2021/03/02 09:14:11;;;;;;;19.10;12.07;;;8.30;99.90;;;;;;5010243;28;20270;-71
2021/03/02 09:16:43;;;;;;;19.63;11.47;;;8.30;99.90;;;;;;5010674;28;20422;-68
2021/03/02 09:19:27;;;;;;;21.80;12.30;;;8.40;99.90;;;;;;5009992;28;20415;-68
2021/03/02 09:22:25;;;;;;;17.57;11.00;;;8.40;99.90;;;;;;5010260;28;20530;-69
2021/03/02 09:24:58;;;;;;;20.13;12.83;;;8.50;99.90;;;;;;4966851;28;20419;-68
2021/03/02 09:27:36;;;;;;;22.80;11.87;;;8.50;99.90;;;;;;5009982;28;20420;-69
2021/03/02 09:30:05;;;;;;;19.17;11.10;;;8.60;99.90;;;;;;5010199;28;20407;-69
2021/03/02 09:32:32;;;;;;;19.63;12.30;;;8.70;99.80;;;;;;5010042;28;20457;-68
2021/03/02 09:35:10;;;;;;;17.07;11.67;;;8.80;99.40;;;;;;5013664;28;20499;-68
2021/03/02 09:37:37;;;;;;;17.63;11.40;;;8.90;98.50;;;;;;5012462;28;20498;-68
2021/03/02 09:40:11;;;;;;;18.40;11.30;;;9.00;99.00;;;;;;5013189;28;21002;-69
2021/03/02 09:42:40;;;;;;;21.07;12.30;;;9.00;98.10;;;;;;5013228;28;20964;-68
2021/03/02 09:45:16;;;;;;;19.10;11.73;;;9.10;98.30;;;;;;4995859;28;20498;-67
2021/03/02 09:47:43;;;;;;;17.17;11.77;;;9.10;97.70;;;;;;5012912;28;20415;-68
2021/03/02 09:50:10;;;;;;;19.63;12.47;;;9.20;97.40;;;;;;5013064;28;20407;-69
2021/03/02 09:52:40;;;;;;;16.43;11.23;;;9.20;98.30;;;;;;5012663;28;20183;-68
2021/03/02 09:55:15;;;;;;;20.60;11.03;;;9.30;97.30;;;;;;5013824;28;20455;-67
2021/03/02 09:58:06;;;;;;;21.63;12.33;;;9.40;98.00;;;;;;5012686;28;20438;-69
2021/03/02 10:00:54;;;;;;;22.63;12.63;;;9.50;97.40;;;;;;5013108;28;20435;-67
2021/03/02 10:03:42;;;;;;;19.23;11.97;;;9.50;96.50;;;;;;5012572;28;20443;-69
2021/03/02 10:06:07;;;;;;;20.53;11.90;;;9.70;96.30;;;;;;5012930;28;20438;-68
2021/03/02 10:08:36;;;;;;;17.73;11.77;;;9.60;97.00;;;;;;5012594;28;20176;-68
2021/03/02 10:11:14;;;;;;;17.57;11.73;;;9.70;96.90;;;;;;5012454;28;20180;-67
2021/03/02 10:13:41;;;;;;;21.07;12.73;;;9.80;95.70;;;;;;5012449;28;20415;-68
2021/03/02 10:16:16;;;;;;;17.07;11.33;;;9.80;95.30;;;;;;5012405;28;20427;-68
2021/03/02 10:18:46;;;;;;;19.17;12.40;;;9.70;95.30;;;;;;5012588;28;20418;-69
2021/03/02 10:21:12;;;;;;;23.37;12.43;;;9.80;96.40;;;;;;5012242;28;20797;-67
2021/03/02 10:23:43;;;;;;;18.93;12.37;;;9.90;95.70;;;;;;5012384;28;20418;-69
2021/03/02 10:26:09;;;;;;;16.33;11.57;;;10.00;95.10;;;;;;5012479;28;20196;-67
2021/03/02 10:28:36;;;;;;;17.10;11.77;;;10.10;95.90;;;;;;5012635;28;20411;-67
2021/03/02 10:31:02;;;;;;;17.63;11.43;;;10.20;94.70;;;;;;5012619;28;20492;-67
2021/03/02 10:33:27;;;;;;;17.83;12.33;;;10.30;94.90;;;;;;5011060;28;20773;-68
2021/03/02 10:35:54;;;;;;;19.60;11.87;;;10.40;93.50;;;;;;5012699;28;20176;-67
2021/03/02 10:38:20;;;;;;;20.57;11.63;;;10.40;93.00;;;;;;5012116;28;20286;-69
2021/03/02 10:40:45;;;;;;;17.27;12.20;;;10.50;93.00;;;;;;5012395;28;20647;-69
2021/03/02 10:43:11;;;;;;;16.97;12.70;;;10.50;93.40;;;;;;5012516;28;20188;-69
2021/03/02 10:45:37;;;;;;;18.90;12.23;;;10.50;94.00;;;;;;5011275;28;20172;-69
2021/03/02 10:48:03;;;;;;;18.40;12.73;;;10.60;93.80;;;;;;5011927;28;20176;-69
2021/03/02 10:50:29;;;;;;;17.80;12.73;;;10.70;92.40;;;;;;5011698;28;20295;-68
2021/03/02 10:52:56;;;;;;;16.43;11.13;;;10.80;92.10;;;;;;5012124;28;20278;-67
2021/03/02 10:55:23;;;;;;;16.60;11.70;;;10.80;91.70;;;;;;5012343;28;20211;-69
2021/03/02 10:57:48;;;;;;;18.97;12.77;;;10.80;92.10;;;;;;5011637;28;20227;-71
2021/03/02 11:00:15;;;;;;;17.10;12.40;;;10.90;92.50;;;;;;5011721;28;20184;-68
2021/03/02 11:02:41;;;;;;;18.67;11.87;;;11.10;91.80;;;;;;5012381;28;20585;-66
2021/03/02 11:05:07;;;;;;;17.40;11.67;;;11.30;91.10;;;;;;5012212;28;20173;-70
2021/03/02 11:07:33;;;;;;;16.67;11.60;;;11.30;90.90;;;;;;5011939;28;20255;-69
2021/03/02 11:09:58;;;;;;;16.63;11.33;;;11.40;90.40;;;;;;5011983;28;20255;-68
2021/03/02 11:12:24;;;;;;;16.80;12.20;;;11.60;90.30;;;;;;5011839;28;20263;-69
2021/03/02 11:14:49;;;;;;;21.60;12.13;;;11.80;87.00;;;;;;5011988;28;20180;-69
2021/03/02 11:17:15;;;;;;;18.27;12.17;;;11.80;89.80;;;;;;5011956;28;20200;-70
2021/03/02 11:19:41;;;;;;;16.97;12.13;;;11.90;87.90;;;;;;5011935;28;20169;-68
2021/03/02 11:22:06;;;;;;;17.47;12.53;;;12.00;85.50;;;;;;5011610;28;20530;-69
2021/03/02 11:24:32;;;;;;;18.57;11.80;;;12.10;84.20;;;;;;5011790;28;20168;-69
2021/03/02 11:26:57;;;;;;;17.37;12.57;;;12.10;87.80;;;;;;5011402;28;20180;-68
2021/03/02 11:29:23;;;;;;;17.87;12.03;;;12.30;84.00;;;;;;5011401;28;20542;-68
2021/03/02 11:31:48;;;;;;;19.07;12.50;;;12.20;82.60;;;;;;5011775;28;20255;-67
2021/03/02 11:34:14;;;;;;;15.70;11.80;;;12.30;84.80;;;;;;5011511;28;20584;-70
2021/03/02 11:36:40;;;;;;;20.20;13.53;;;12.30;79.20;;;;;;5011463;28;20180;-67
2021/03/02 11:39:05;;;;;;;17.57;13.03;;;12.30;81.80;;;;;;5011314;28;20187;-68
2021/03/02 11:41:31;;;;;;;20.50;13.10;;;12.40;84.10;;;;;;5011168;28;20195;-67
2021/03/02 11:43:56;;;;;;;17.83;12.23;;;12.60;83.30;;;;;;5011588;28;20175;-70
2021/03/02 11:46:22;;;;;;;17.53;12.50;;;12.90;81.80;;;;;;5011340;28;20177;-67
2021/03/02 11:48:48;;;;;;;19.50;13.27;;;13.30;81.40;;;;;;5011298;28;20203;-67
2021/03/02 11:51:13;;;;;;;15.60;12.07;;;13.60;75.50;;;;;;4993942;28;20199;-67
2021/03/02 11:53:39;;;;;;;19.43;13.60;;;13.80;77.10;;;;;;5012643;28;20220;-68
2021/03/02 11:56:04;;;;;;;17.97;12.20;;;14.10;73.30;;;;;;5011093;28;20242;-69
2021/03/02 11:58:30;;;;;;;17.63;12.80;;;14.10;74.60;;;;;;5011159;28;20685;-68
2021/03/02 12:00:56;;;;;;;15.77;11.80;;;14.20;75.40;;;;;;5010944;28;20196;-68
2021/03/02 12:03:23;;;;;;;16.77;13.30;;;14.50;71.80;;;;;;5010989;28;20180;-69
2021/03/02 12:05:49;;;;;;;18.17;12.10;;;14.60;72.30;;;;;;5011046;28;20183;-68
2021/03/02 12:08:15;;;;;;;20.90;12.97;;;14.90;74.80;;;;;;5010903;28;20231;-67
2021/03/02 12:10:41;;;;;;;17.23;13.07;;;15.40;73.60;;;;;;5010991;28;20180;-69
2021/03/02 12:13:07;;;;;;;17.30;12.27;;;16.00;66.20;;;;;;5010598;28;20502;-69
2021/03/02 12:15:33;;;;;;;17.83;13.43;;;16.20;66.50;;;;;;5010987;28;20577;-69
2021/03/02 12:17:58;;;;;;;15.80;12.40;;;16.60;66.20;;;;;;5011017;28;20270;-68
2021/03/02 12:20:24;;;;;;;18.30;13.30;;;16.40;61.90;;;;;;5010967;28;20176;-68
2021/03/02 12:22:50;;;;;;;17.83;13.17;;;16.30;60.90;;;;;;5010567;28;20214;-68
2021/03/02 12:25:16;;;;;;;15.23;11.87;;;16.60;62.30;;;;;;5010944;28;20184;-68
2021/03/02 12:27:41;;;;;;;21.57;12.50;;;17.10;65.50;;;;;;4993091;28;20168;-67
2021/03/02 12:30:07;;;;;;;16.00;12.20;;;18.10;61.20;;;;;;5010895;28;20632;-66
2021/03/02 12:32:35;;;;;;;21.00;14.17;;;18.70;57.40;;;;;;4992917;28;20233;-66
2021/03/02 12:35:01;;;;;;;17.33;12.20;;;18.90;51.70;;;;;;5011124;28;20230;-68
2021/03/02 12:37:26;;;;;;;17.90;12.93;;;19.30;54.50;;;;;;5010514;28;20215;-70
2021/03/02 12:39:52;;;;;;;20.40;12.90;;;19.30;51.20;;;;;;5010822;28;20289;-66
2021/03/02 12:42:18;;;;;;;19.20;13.17;;;19.70;51.40;;;;;;5010074;28;20223;-67
2021/03/02 12:44:43;;;;;;;18.57;14.00;;;20.30;49.30;;;;;;5010086;28;20181;-67
2021/03/02 12:47:16;;;;;;;15.70;12.67;;;20.80;46.90;;;;;;5010264;28;20295;-66
2021/03/02 12:49:41;;;;;;;15.17;13.60;;;21.50;44.40;;;;;;5009722;28;20259;-69
2021/03/02 12:52:07;;;;;;;16.27;13.10;;;21.50;42.70;;;;;;5010289;28;20695;-66